createdAt,value
2023-03-10T00:01:28.654Z,11.77
2023-03-10T00:04:30.301Z,9.77
2023-03-10T00:07:31.969Z,11.00
2023-03-10T00:10:33.594Z,10.93
2023-03-10T00:13:38.244Z,15.73
2023-03-10T00:16:43.362Z,39.33
2023-03-10T00:19:44.964Z,36.43
2023-03-10T00:22:46.989Z,45.13
2023-03-10T00:25:59.358Z,40.53
2023-03-10T00:29:01.256Z,37.38
2023-03-10T00:32:06.469Z,29.43
2023-03-10T00:35:08.459Z,21.80
2023-03-10T00:38:13.001Z,25.55
2023-03-10T00:41:19.093Z,30.70
2023-03-10T00:44:21.322Z,31.20
2023-03-10T00:47:23.050Z,31.83
2023-03-10T00:50:24.724Z,29.17
2023-03-10T00:53:26.372Z,20.98
2023-03-10T00:56:28.254Z,21.13
2023-03-10T00:59:47.820Z,14.45
2023-03-10T01:02:53.026Z,10.93
2023-03-10T01:05:54.903Z,7.97
2023-03-10T01:08:56.530Z,21.83
2023-03-10T01:11:58.152Z,47.78
2023-03-10T01:15:02.929Z,60.40
2023-03-10T01:18:05.124Z,85.57
2023-03-10T01:21:06.896Z,47.83
2023-03-10T01:24:10.095Z,38.45
2023-03-10T01:27:11.819Z,28.65
2023-03-10T01:30:13.982Z,20.63
2023-03-10T01:33:19.795Z,12.97
2023-03-10T01:36:23.291Z,11.73
2023-03-10T01:39:24.859Z,13.43
2023-03-10T01:42:26.572Z,12.63
2023-03-10T01:45:28.208Z,11.68
2023-03-10T01:48:35.624Z,8.00
2023-03-10T01:51:40.212Z,8.30
2023-03-10T01:55:02.082Z,8.38
2023-03-10T01:58:07.516Z,11.57
2023-03-10T02:01:13.024Z,11.27
2023-03-10T02:04:23.432Z,11.50
2023-03-10T02:07:26.833Z,8.87
2023-03-10T02:10:28.511Z,8.70
2023-03-10T02:13:30.127Z,10.55
2023-03-10T02:16:35.207Z,15.05
2023-03-10T02:20:09.512Z,58.67
2023-03-10T02:23:12.333Z,76.50
2023-03-10T02:26:22.845Z,71.45
2023-03-10T02:29:31.459Z,65.30
2023-03-10T02:32:38.938Z,47.03
2023-03-10T02:35:43.459Z,48.73
2023-03-10T02:38:45.215Z,37.07
2023-03-10T02:41:46.868Z,34.28
2023-03-10T02:44:53.660Z,31.55
2023-03-10T02:47:58.264Z,21.73
2023-03-10T02:51:00.513Z,22.60
2023-03-10T02:54:06.530Z,21.17
2023-03-10T02:57:08.764Z,27.27
2023-03-10T03:00:11.880Z,25.77
2023-03-10T03:03:17.675Z,28.20
2023-03-10T03:06:22.297Z,25.37
2023-03-10T03:09:23.975Z,23.50
2023-03-10T03:12:25.630Z,29.92
2023-03-10T03:15:31.656Z,37.03
2023-03-10T03:18:33.591Z,39.03
2023-03-10T03:21:38.172Z,36.87
2023-03-10T03:24:39.836Z,62.13
2023-03-10T03:27:41.667Z,60.40
2023-03-10T03:30:47.510Z,60.15
2023-03-10T03:33:49.281Z,57.95
2023-03-10T03:36:51.780Z,39.57
2023-03-10T03:39:53.570Z,55.90
2023-03-10T03:42:55.380Z,49.45
2023-03-10T03:45:57.019Z,31.55
2023-03-10T03:49:02.627Z,40.72
2023-03-10T03:52:05.052Z,43.53
2023-03-10T03:55:07.802Z,40.40
2023-03-10T03:58:09.475Z,54.78
2023-03-10T04:01:12.774Z,61.83
2023-03-10T04:04:17.549Z,68.72
2023-03-10T04:07:22.158Z,62.23
2023-03-10T04:10:23.907Z,64.90
2023-03-10T04:13:25.697Z,63.78
2023-03-10T04:16:27.384Z,69.18
2023-03-10T04:19:33.400Z,66.72
2023-03-10T04:22:39.801Z,46.90
2023-03-10T04:25:43.102Z,32.03
2023-03-10T04:28:44.749Z,39.40
2023-03-10T04:31:55.802Z,35.55
2023-03-10T04:38:30.810Z,29.70
2023-03-10T04:41:32.479Z,28.60
2023-03-10T04:44:34.429Z,38.67
2023-03-10T04:47:36.125Z,43.47
2023-03-10T04:50:41.136Z,52.45
2023-03-10T04:53:42.846Z,50.30
2023-03-10T04:56:44.801Z,49.63
2023-03-10T04:59:46.464Z,45.58
2023-03-10T05:02:51.461Z,39.67
2023-03-10T05:05:53.037Z,36.35
2023-03-10T05:08:58.904Z,35.97
2023-03-10T05:12:00.468Z,46.80
2023-03-10T05:15:02.206Z,42.45
2023-03-10T05:18:07.332Z,53.05
2023-03-10T05:21:09.090Z,61.40
2023-03-10T05:24:10.737Z,87.03
2023-03-10T05:27:13.032Z,101.33
2023-03-10T05:30:16.074Z,117.20
2023-03-10T05:33:21.388Z,119.85
2023-03-10T05:36:23.101Z,137.52
2023-03-10T05:39:24.708Z,139.20
2023-03-10T05:42:26.292Z,133.63
2023-03-10T05:45:28.017Z,131.18
2023-03-10T05:48:33.671Z,124.32
2023-03-10T05:51:35.322Z,206.55
2023-03-10T05:54:37.117Z,167.50
2023-03-10T05:57:38.718Z,133.07
2023-03-10T06:00:40.314Z,110.30
2023-03-10T06:03:42.205Z,101.13
2023-03-10T06:06:44.186Z,91.18
2023-03-10T06:09:45.991Z,61.53
2023-03-10T06:12:47.663Z,18.27
2023-03-10T06:15:57.216Z,17.25
2023-03-10T06:18:58.946Z,13.77
2023-03-10T06:22:00.544Z,20.67
2023-03-10T06:25:02.210Z,13.33
2023-03-10T06:28:03.814Z,13.87
2023-03-10T06:31:09.525Z,13.30
2023-03-10T06:34:11.283Z,17.05
2023-03-10T06:37:12.950Z,13.57
2023-03-10T06:40:14.665Z,13.80
2023-03-10T06:43:16.551Z,11.57
2023-03-10T06:46:18.212Z,14.35
2023-03-10T06:49:19.922Z,111.90
2023-03-10T06:52:22.207Z,97.38
2023-03-10T06:55:23.870Z,166.43
2023-03-10T06:58:25.517Z,231.00
2023-03-10T07:01:29.127Z,272.88
2023-03-10T07:04:30.918Z,285.00
2023-03-10T07:07:32.669Z,103.35
2023-03-10T07:10:34.475Z,35.67
2023-03-10T07:13:36.190Z,21.97
2023-03-10T07:16:39.855Z,12.77
2023-03-10T07:19:41.596Z,12.60
2023-03-10T07:22:44.661Z,11.20
2023-03-10T07:25:46.367Z,12.90
2023-03-10T07:28:48.087Z,18.23
2023-03-10T07:31:49.787Z,16.58
2023-03-10T07:34:51.845Z,15.88
2023-03-10T07:37:53.624Z,12.50
2023-03-10T07:40:55.499Z,11.30
2023-03-10T07:43:57.220Z,11.63
2023-03-10T07:46:59.066Z,16.13
2023-03-10T07:50:00.656Z,11.13
2023-03-10T07:53:02.400Z,14.02
2023-03-10T07:56:07.886Z,14.33
2023-03-10T07:59:10.950Z,14.57
2023-03-10T08:02:13.613Z,12.40
2023-03-10T08:05:15.350Z,11.02
2023-03-10T08:08:17.248Z,10.77
2023-03-10T08:11:19.286Z,10.70
2023-03-10T08:14:24.144Z,10.73
2023-03-10T08:17:30.829Z,10.77
2023-03-10T08:20:32.651Z,11.98
2023-03-10T08:23:34.769Z,12.82
2023-03-10T08:26:37.375Z,14.83
2023-03-10T08:29:39.480Z,10.47
2023-03-10T08:32:41.404Z,14.63
2023-03-10T08:35:43.559Z,17.88
2023-03-10T08:38:45.342Z,17.95
2023-03-10T08:41:49.247Z,22.03
2023-03-10T08:44:51.162Z,14.80
2023-03-10T08:47:52.861Z,12.05
2023-03-10T08:50:54.542Z,12.57
2023-03-10T08:53:56.268Z,16.52
2023-03-10T08:56:58.035Z,14.70
2023-03-10T08:59:59.999Z,14.93
2023-03-10T09:03:03.255Z,21.27
2023-03-10T09:06:05.276Z,15.02
2023-03-10T09:09:07.841Z,18.15
2023-03-10T09:12:09.556Z,20.73
2023-03-10T09:15:11.278Z,19.07
2023-03-10T09:18:13.585Z,16.88
2023-03-10T09:21:16.593Z,12.93
2023-03-10T09:24:19.579Z,12.50
2023-03-10T09:27:21.360Z,12.67
2023-03-10T09:30:23.141Z,14.97
2023-03-10T09:33:25.092Z,18.23
2023-03-10T09:36:29.829Z,10.68
2023-03-10T09:39:33.775Z,24.50
2023-03-10T09:42:51.842Z,12.33
2023-03-10T09:46:13.810Z,10.50
2023-03-10T09:49:37.946Z,8.15
2023-03-10T09:52:46.086Z,10.07
2023-03-10T09:55:49.013Z,11.63
2023-03-10T09:58:56.901Z,10.63
2023-03-10T10:01:59.456Z,12.53
2023-03-10T10:05:04.257Z,16.95
2023-03-10T10:08:39.116Z,13.88
2023-03-10T10:11:40.806Z,14.68
2023-03-10T10:14:51.490Z,10.50
2023-03-10T10:18:21.434Z,9.67
2023-03-10T10:21:42.576Z,9.40
2023-03-10T10:25:13.734Z,10.55
2023-03-10T10:28:29.418Z,7.75
2023-03-10T10:31:33.395Z,11.53
2023-03-10T10:34:37.281Z,8.40
2023-03-10T10:37:43.085Z,8.63
2023-03-10T10:41:05.128Z,10.05
2023-03-10T10:44:09.740Z,12.32
2023-03-10T10:47:31.210Z,9.90
2023-03-10T10:50:34.591Z,10.70
2023-03-10T10:53:36.241Z,10.02
2023-03-10T10:56:41.090Z,8.50
2023-03-10T10:59:42.702Z,7.32
2023-03-10T11:02:44.403Z,9.23
2023-03-10T11:05:46.096Z,9.57
2023-03-10T11:08:51.386Z,8.85
2023-03-10T11:12:08.149Z,8.13
2023-03-10T11:15:30.273Z,8.43
2023-03-10T11:18:54.124Z,10.27
2023-03-10T11:21:59.323Z,8.47
2023-03-10T11:25:27.282Z,10.48
2023-03-10T11:28:50.792Z,8.93
2023-03-10T11:32:05.830Z,7.78
2023-03-10T11:35:29.507Z,7.73
2023-03-10T11:38:42.652Z,8.23
2023-03-10T11:41:46.356Z,8.10
2023-03-10T11:45:19.200Z,11.90
2023-03-10T11:48:36.124Z,8.02
2023-03-10T11:52:10.549Z,7.23
2023-03-10T11:55:20.189Z,7.90
2023-03-10T11:58:25.429Z,7.97
2023-03-10T12:01:47.441Z,8.38
2023-03-10T12:04:49.236Z,7.10
2023-03-10T12:07:56.164Z,6.53
2023-03-10T12:10:59.166Z,9.00
2023-03-10T12:14:01.355Z,6.63
2023-03-10T12:17:03.067Z,6.90
2023-03-10T12:20:15.403Z,5.28
2023-03-10T12:23:26.867Z,6.13
2023-03-10T12:26:37.642Z,6.70
2023-03-10T12:29:41.257Z,6.75
2023-03-10T12:32:47.681Z,6.60
2023-03-10T12:35:50.844Z,6.93
2023-03-10T12:38:57.897Z,6.97
2023-03-10T12:42:03.322Z,6.83
2023-03-10T12:45:17.488Z,5.80
2023-03-10T12:48:19.847Z,8.20
2023-03-10T12:51:23.839Z,7.32
2023-03-10T12:54:59.299Z,7.93
2023-03-10T12:58:48.046Z,7.00
2023-03-10T13:01:23.844Z,10.50
2023-03-10T13:04:25.652Z,7.13
2023-03-10T13:07:28.508Z,8.52
2023-03-10T13:10:32.064Z,11.37
2023-03-10T13:13:34.762Z,7.27
2023-03-10T13:16:36.768Z,9.82
2023-03-10T13:19:39.118Z,7.50
2023-03-10T13:22:40.990Z,8.07
2023-03-10T13:26:04.038Z,8.70
2023-03-10T13:29:21.864Z,7.73
2023-03-10T13:32:23.983Z,8.02
2023-03-10T13:35:31.120Z,8.52
2023-03-10T13:38:33.032Z,7.00
2023-03-10T13:41:37.586Z,8.77
2023-03-10T13:44:41.000Z,11.47
2023-03-10T13:47:42.690Z,7.38
2023-03-10T13:50:44.387Z,10.80
2023-03-10T13:53:47.808Z,8.55
2023-03-10T13:56:51.541Z,6.80
2023-03-10T13:59:54.109Z,7.87
2023-03-10T14:02:55.934Z,7.82
2023-03-10T14:05:57.574Z,6.55
2023-03-10T14:09:19.548Z,7.65
2023-03-10T14:12:36.037Z,8.03
2023-03-10T14:15:39.073Z,6.93
2023-03-10T14:18:42.151Z,7.30
2023-03-10T14:22:00.040Z,6.70
2023-03-10T14:25:08.493Z,6.47
2023-03-10T14:31:25.445Z,33.87
2023-03-10T14:34:27.286Z,47.03
2023-03-10T14:37:28.950Z,62.95
2023-03-10T14:40:30.589Z,27.88
2023-03-10T14:43:32.833Z,28.83
2023-03-10T14:46:35.531Z,17.37
2023-03-10T14:49:37.585Z,35.50
2023-03-10T14:52:39.482Z,68.63
2023-03-10T14:55:41.662Z,86.65
2023-03-10T14:58:48.223Z,123.07
2023-03-10T15:01:50.280Z,204.33
2023-03-10T15:04:52.382Z,158.38
2023-03-10T15:07:54.162Z,149.15
2023-03-10T15:10:55.814Z,103.60
2023-03-10T15:13:57.620Z,113.83
2023-03-10T15:16:59.423Z,34.07
2023-03-10T15:20:02.549Z,15.23
2023-03-10T15:23:04.229Z,9.48
2023-03-10T15:26:13.445Z,9.02
2023-03-10T15:29:16.152Z,6.60
2023-03-10T15:32:18.262Z,8.40
2023-03-10T15:35:21.761Z,24.63
2023-03-10T15:38:24.605Z,80.75
2023-03-10T15:41:26.219Z,53.78
2023-03-10T15:44:27.901Z,49.83
2023-03-10T15:47:29.586Z,31.17
2023-03-10T15:50:31.244Z,28.40
2023-03-10T15:53:32.828Z,100.57
2023-03-10T15:56:37.989Z,58.88
2023-03-10T15:59:44.345Z,31.50
2023-03-10T16:02:48.630Z,86.23
2023-03-10T16:05:50.439Z,90.43
2023-03-10T16:08:52.044Z,92.68
2023-03-10T16:11:57.382Z,89.20
2023-03-10T16:15:03.529Z,136.33
2023-03-10T16:18:09.300Z,132.97
2023-03-10T16:21:10.972Z,124.57
2023-03-10T16:24:12.768Z,160.38
2023-03-10T16:27:14.484Z,52.40
2023-03-10T16:30:21.618Z,20.37
2023-03-10T16:33:23.383Z,13.50
2023-03-10T16:36:26.566Z,9.65
2023-03-10T16:39:31.150Z,7.90
2023-03-10T16:42:35.924Z,7.85
2023-03-10T16:45:40.996Z,7.80
2023-03-10T16:48:44.405Z,9.77
2023-03-10T16:51:50.208Z,8.20
2023-03-10T16:55:00.277Z,8.43
2023-03-10T16:58:01.901Z,9.23
2023-03-10T17:01:03.754Z,7.57
2023-03-10T17:04:05.604Z,8.97
2023-03-10T17:07:07.462Z,8.20
2023-03-10T17:10:11.767Z,8.98
2023-03-10T17:13:13.419Z,10.13
2023-03-10T17:16:18.963Z,10.20
2023-03-10T17:19:25.384Z,10.13
2023-03-10T17:22:30.923Z,9.65
2023-03-10T17:28:38.438Z,10.20
2023-03-10T17:31:40.237Z,9.60
2023-03-10T17:34:41.985Z,10.93
2023-03-10T17:37:45.294Z,10.40
2023-03-10T17:40:47.025Z,8.98
2023-03-10T17:43:48.929Z,12.32
2023-03-10T17:46:56.116Z,11.23
2023-03-10T17:50:04.284Z,15.07
2023-03-10T17:53:06.213Z,12.90
2023-03-10T17:56:08.193Z,9.10
2023-03-10T17:59:10.990Z,11.90
2023-03-10T18:02:16.560Z,9.60
2023-03-10T18:05:22.302Z,9.43
2023-03-10T18:08:24.043Z,12.07
2023-03-10T18:11:26.426Z,10.85
2023-03-10T18:14:32.550Z,7.60
2023-03-10T18:17:34.129Z,6.80
2023-03-10T18:20:40.597Z,8.30
2023-03-10T18:23:42.868Z,8.63
2023-03-10T18:26:48.897Z,9.18
2023-03-10T18:29:55.296Z,7.30
2023-03-10T18:32:57.019Z,8.33
2023-03-10T18:36:05.503Z,10.33
2023-03-10T18:39:07.908Z,8.60
2023-03-10T18:42:14.639Z,12.32
2023-03-10T18:45:19.250Z,8.48
2023-03-10T18:48:23.875Z,8.03
2023-03-10T18:51:26.450Z,7.03
2023-03-10T18:54:31.340Z,8.35
2023-03-10T18:57:33.002Z,10.73
2023-03-10T19:00:34.628Z,19.65
2023-03-10T19:03:36.259Z,23.63
2023-03-10T19:06:37.856Z,27.03
2023-03-10T19:09:39.430Z,24.33
2023-03-10T19:12:44.150Z,15.95
2023-03-10T19:15:49.185Z,18.00
2023-03-10T19:18:50.824Z,21.90
2023-03-10T19:21:56.622Z,13.03
2023-03-10T19:24:58.378Z,12.15
2023-03-10T19:27:59.947Z,13.65
2023-03-10T19:31:05.053Z,10.98
2023-03-10T19:34:06.826Z,13.90
2023-03-10T19:37:08.572Z,14.60
2023-03-10T19:40:14.782Z,16.17
2023-03-10T19:43:16.815Z,16.25
2023-03-10T19:46:18.721Z,17.90
2023-03-10T19:49:20.573Z,19.67
2023-03-10T19:52:22.201Z,15.83
2023-03-10T19:55:24.223Z,15.27
2023-03-10T19:58:26.100Z,10.50
2023-03-10T20:01:31.445Z,12.27
2023-03-10T20:04:38.704Z,10.13
2023-03-10T20:07:44.451Z,10.23
2023-03-10T20:10:46.193Z,10.27
2023-03-10T20:13:47.806Z,9.40
2023-03-10T20:16:54.572Z,9.07
2023-03-10T20:19:59.049Z,10.13
2023-03-10T20:23:00.637Z,8.87
2023-03-10T20:26:03.754Z,10.05
2023-03-10T20:29:05.433Z,9.68
2023-03-10T20:32:07.718Z,8.07
2023-03-10T20:35:12.301Z,8.90
2023-03-10T20:38:17.678Z,7.30
2023-03-10T20:41:23.197Z,8.30
2023-03-10T20:44:24.874Z,9.35
2023-03-10T20:47:26.613Z,9.15
2023-03-10T20:50:32.557Z,10.03
2023-03-10T20:53:37.196Z,9.80
2023-03-10T20:56:38.902Z,10.52
2023-03-10T20:59:40.541Z,10.50
2023-03-10T21:02:47.527Z,8.85
2023-03-10T21:05:52.057Z,8.27
2023-03-10T21:08:57.577Z,8.70
2023-03-10T21:11:59.188Z,8.82
2023-03-10T21:15:00.837Z,7.47
2023-03-10T21:18:02.468Z,8.70
2023-03-10T21:21:12.446Z,7.37
2023-03-10T21:24:17.009Z,8.97
2023-03-10T21:27:20.942Z,8.52
2023-03-10T21:30:23.584Z,8.85
2023-03-10T21:33:31.728Z,7.53
2023-03-10T21:36:36.367Z,6.70
2023-03-10T21:39:40.973Z,6.37
2023-03-10T21:42:42.606Z,7.72
2023-03-10T21:45:44.428Z,6.70
2023-03-10T21:48:49.516Z,7.22
2023-03-10T21:51:51.158Z,6.83
2023-03-10T21:54:55.944Z,6.57
2023-03-10T21:57:57.699Z,8.48
2023-03-10T22:00:59.529Z,7.03
2023-03-10T22:04:04.390Z,7.90
2023-03-10T22:07:06.376Z,7.10
2023-03-10T22:10:12.747Z,7.87
2023-03-10T22:13:14.357Z,7.65
2023-03-10T22:16:20.223Z,8.50
2023-03-10T22:19:25.663Z,9.25
2023-03-10T22:22:27.322Z,7.27
2023-03-10T22:25:29.056Z,7.87
2023-03-10T22:28:30.696Z,9.60
2023-03-10T22:31:32.346Z,8.25
2023-03-10T22:34:37.033Z,6.80
2023-03-10T22:37:39.333Z,7.23
2023-03-10T22:40:40.951Z,9.13
2023-03-10T22:43:42.704Z,6.85
2023-03-10T22:46:45.521Z,8.82
2023-03-10T22:49:50.200Z,7.78
2023-03-10T22:52:55.697Z,7.50
2023-03-10T22:56:00.278Z,6.83
2023-03-10T22:59:03.971Z,7.68
2023-03-10T23:02:05.714Z,9.73
2023-03-10T23:05:11.463Z,9.23
2023-03-10T23:08:16.180Z,8.10
2023-03-10T23:11:17.835Z,9.10
2023-03-10T23:14:19.523Z,7.32
2023-03-10T23:17:21.218Z,7.35
2023-03-10T23:20:30.781Z,7.50
2023-03-10T23:23:35.614Z,8.23
2023-03-10T23:26:41.058Z,7.87
2023-03-10T23:29:46.568Z,7.57
2023-03-10T23:32:49.462Z,8.55
2023-03-10T23:35:54.115Z,7.43
2023-03-10T23:38:59.545Z,8.13
2023-03-10T23:42:04.110Z,9.00
2023-03-10T23:45:06.505Z,7.85
2023-03-10T23:48:11.554Z,9.48
2023-03-10T23:51:18.827Z,7.43
2023-03-10T23:54:22.463Z,7.03
2023-03-10T23:57:24.158Z,7.13
